Airfield :
LOGIN :

Register | Disclaimer

   EN    FR    IT 

 










Legend :    VFR   Marginal VFR   IFR   Intensive IFR   Very Intensive IFR
Visi :
Ceiling :
>= 8 km
>= 3000ft
5 to 8 km
1000 to 3000 ft
1500m to 5 km
500 to 1000 ft
800 to 1500m
200 to 500 ft
< 800m
< 200 ft
Symbols :   Thunderstorms  Fog  Heavy snow  Heavy precipitations  Wind > 20 kt
SIGMETs :     Misc.  Thunderstorms  Icing  Turbulence  Mountain Waves  Volcanic Ashes







- Airport Elevation : 1213 ft
- IATA code : SCQ


LEST - Santiago de Compostela

CURRENT METAR :
  • 210700Z 00000KT 3000 1200S R17/1000U BCFG FEW001 SCT008 04/04 Q1025 TEMPO 0800 BCFG

EXPIRED METARs :
  • 210630Z 32003KT 4000 1500N R17/0500N BCFG FEW001 SCT012 04/04 Q1025 TEMPO 0800 BCFG
  • 210600Z 00000KT 6000 2000N BCFG FEW001 SCT012 04/04 Q1025 TEMPO 0800 BCFG
  • 210530Z VRB02KT 5000 1000N R17/0500D BCFG SCT001 04/04 Q1025 TEMPO 0800 BCFG
  • 210511Z VRB02KT 3000 1000N R17/0750U R35/0750D BCFG FEW001 SCT014 04/04 Q1025 TEMPO 0800 BCFG
  • 210500Z 34003KT 1500 R17/0600D BCFG VV001 04/04 Q1025 TEMPO 0800 BCFG
  • 210430Z 01005KT 8000 BCFG FEW001 SCT007 05/05 Q1025 TEMPO 0800 BCFG

TAF TAF LEST
Valid from the 21 at 06:00 until the 22 at 06:00 UTC


210500Z 2106/2206 35007KT 9999 SCT015 SCT040 TX11/2115Z TN03/2206Z
PROB40
TEMPO 2106/2108 RA
PROB30
TEMPO 2106/2108 3000 SHRA SCT030TCU
TEMPO 2106/2108 3000 BR BKN010
PROB40
TEMPO 2106/2108 0800 BCFG VV001
No reported NOTAMs for that airfield.



MET'MAP, your aeronautical weather chart ! - Copyright ORBIFLY December 2007 - Disclaimer

ORBIFLY MET'MAP TEAM :

Programming & Development : Alexandra Zaïnal
Concept & Development : Baudouin d'Aumeries
Co-Development & Prog : Marc-Olivier Méhu
Technical & hardware support : Manuel Goepfert

Contact : metmap@orbifly.com




SOURCES & CREDITS :

   NOAA